Time;durP1;ratioP1;P1;durP2;ratioP2;P2;SDS_P1;SDS_P2;PMS_P1;PMS_P2;Temp;Humidity;BMP_temperature;BMP_pressure;BME280_temperature;BME280_humidity;BME280_pressure;Samples;Min_cycle;Max_cycle;Signal;HPM_P1;HPM_P2
2023/05/27 00:00:56;;;;;;;17.13;3.85;;;;;;;14.18;52.63;102620.63;5065311;28;20105;-38
2023/05/27 00:03:21;;;;;;;15.95;4.28;;;;;;;14.19;52.65;102621.47;5061492;28;20056;-38
2023/05/27 00:05:47;;;;;;;11.48;3.28;;;;;;;14.23;52.54;102617.78;5066059;28;20402;-38
2023/05/27 00:08:12;;;;;;;12.75;3.00;;;;;;;14.23;52.44;102616.91;5067416;28;20032;-38
2023/05/27 00:10:37;;;;;;;7.47;3.15;;;;;;;14.17;52.69;102621.56;5048690;28;20545;-38
2023/05/27 00:13:03;;;;;;;10.07;3.58;;;;;;;14.13;52.65;102621.75;5062522;28;20068;-38
2023/05/27 00:15:28;;;;;;;9.25;3.17;;;;;;;14.08;52.72;102621.94;5058426;28;20040;-38
2023/05/27 00:17:54;;;;;;;18.73;3.92;;;;;;;14.12;52.81;102623.53;5065760;28;20020;-38
2023/05/27 00:20:19;;;;;;;12.85;3.22;;;;;;;14.14;52.56;102626.97;5063978;28;20380;-38
2023/05/27 00:22:47;;;;;;;14.02;3.55;;;;;;;14.16;52.94;102622.47;5057215;28;20024;-38
2023/05/27 00:25:16;;;;;;;23.63;4.15;;;;;;;14.20;52.82;102623.19;5064624;28;25009;-38
2023/05/27 00:27:41;;;;;;;14.52;4.05;;;;;;;14.18;52.84;102630.34;5045732;28;20111;-38
2023/05/27 00:30:07;;;;;;;13.35;4.00;;;;;;;14.20;52.90;102633.78;5065813;28;20057;-38
2023/05/27 00:32:33;;;;;;;10.70;3.65;;;;;;;14.11;53.08;102624.44;5056885;28;23629;-38
2023/05/27 00:34:58;;;;;;;9.85;3.20;;;;;;;14.06;53.42;102631.75;5062812;28;20028;-38
2023/05/27 00:37:24;;;;;;;9.50;3.58;;;;;;;14.12;53.19;102630.63;5062110;28;20043;-38
2023/05/27 00:39:49;;;;;;;13.90;3.95;;;;;;;14.09;53.47;102630.75;5063396;28;20039;-38
2023/05/27 00:42:16;;;;;;;14.80;3.47;;;;;;;14.09;53.31;102625.47;5061687;28;20031;-38
2023/05/27 00:44:41;;;;;;;13.30;3.80;;;;;;;14.05;53.43;102635.31;5065586;28;20048;-38
2023/05/27 00:47:07;;;;;;;16.58;3.95;;;;;;;14.07;53.51;102628.16;5066121;28;20020;-38
2023/05/27 00:49:33;;;;;;;15.30;3.38;;;;;;;14.04;53.40;102628.31;5062723;28;20047;-38
2023/05/27 00:51:59;;;;;;;9.63;3.35;;;;;;;14.03;53.60;102630.06;5065796;28;20027;-37
2023/05/27 00:54:25;;;;;;;8.82;3.60;;;;;;;14.09;53.32;102631.59;5068230;28;20040;-38
2023/05/27 00:56:51;;;;;;;12.93;4.20;;;;;;;14.09;53.42;102636.03;5065334;28;20470;-38
2023/05/27 00:59:17;;;;;;;12.60;3.58;;;;;;;14.03;53.56;102627.44;5047429;28;20526;-38
2023/05/27 01:01:43;;;;;;;14.55;3.88;;;;;;;14.00;53.88;102630.19;5063819;28;20027;-38
2023/05/27 01:04:12;;;;;;;16.25;3.33;;;;;;;13.90;53.91;102626.22;5064857;28;20077;-38
2023/05/27 01:06:56;;;;;;;12.52;3.72;;;;;;;13.86;54.17;102628.16;5061984;28;20051;-38
2023/05/27 01:09:45;;;;;;;10.77;3.00;;;;;;;13.95;54.14;102629.56;5064799;28;20043;-38
2023/05/27 01:12:28;;;;;;;13.38;3.55;;;;;;;14.00;53.94;102632.84;5053887;28;20031;-38
2023/05/27 01:14:57;;;;;;;13.43;3.50;;;;;;;13.94;53.89;102627.81;5054498;28;20030;-38
2023/05/27 01:17:26;;;;;;;11.73;3.00;;;;;;;13.84;54.25;102623.84;5061436;28;20027;-39
2023/05/27 01:19:52;;;;;;;13.02;3.67;;;;;;;13.85;54.02;102625.53;5066637;28;20462;-39
2023/05/27 01:22:20;;;;;;;12.10;3.38;;;;;;;13.84;54.21;102629.16;5060003;28;20036;-39
2023/05/27 01:24:46;;;;;;;8.48;3.17;;;;;;;13.85;54.28;102628.19;5066046;28;20069;-39
2023/05/27 01:27:12;;;;;;;13.05;3.85;;;;;;;13.85;54.12;102622.91;5067870;28;20309;-38
2023/05/27 01:29:40;;;;;;;13.07;4.15;;;;;;;13.86;54.17;102625.50;5069640;28;20036;-39
2023/05/27 01:32:17;;;;;;;10.85;3.00;;;;;;;13.83;54.33;102624.78;5054211;28;20036;-39
2023/05/27 01:34:55;;;;;;;7.55;3.40;;;;;;;13.91;54.15;102627.94;5061677;28;20490;-39
2023/05/27 01:37:23;;;;;;;5.28;2.97;;;;;;;13.97;53.65;102626.81;5073819;28;20024;-39
2023/05/27 01:39:50;;;;;;;12.52;3.78;;;;;;;13.91;53.88;102617.38;5067659;28;20024;-39
2023/05/27 01:42:17;;;;;;;14.02;3.90;;;;;;;13.87;53.96;102627.22;5051347;28;21267;-38
2023/05/27 01:44:43;;;;;;;20.70;4.18;;;;;;;13.86;54.07;102624.63;5068035;28;20160;-39
2023/05/27 01:47:09;;;;;;;11.48;2.70;;;;;;;13.84;54.02;102623.84;5064244;28;20158;-39
2023/05/27 01:49:35;;;;;;;14.57;4.00;;;;;;;13.83;54.24;102619.47;5057285;28;20036;-39
2023/05/27 01:52:00;;;;;;;13.77;3.75;;;;;;;13.86;54.13;102611.38;5065491;28;20028;-39
2023/05/27 01:54:26;;;;;;;12.63;3.47;;;;;;;13.84;54.31;102616.75;5066339;28;20082;-39
2023/05/27 01:56:52;;;;;;;10.27;3.38;;;;;;;13.82;54.16;102613.31;5069133;28;20044;-39
2023/05/27 01:59:17;;;;;;;11.27;3.05;;;;;;;13.77;54.38;102619.72;5063174;28;20032;-39
2023/05/27 02:01:43;;;;;;;13.48;3.03;;;;;;;13.72;54.18;102615.47;5064596;28;20078;-39
2023/05/27 02:04:08;;;;;;;12.48;3.20;;;;;;;13.68;54.45;102615.66;5068121;28;20103;-39
2023/05/27 02:06:34;;;;;;;13.27;2.72;;;;;;;13.62;54.37;102615.91;5070174;28;20024;-39
2023/05/27 02:09:00;;;;;;;15.75;3.67;;;;;;;13.56;54.56;102617.91;5058202;28;20024;-39
2023/05/27 02:11:25;;;;;;;9.00;3.17;;;;;;;13.52;54.67;102611.00;5062403;28;20039;-39
2023/05/27 02:13:52;;;;;;;12.38;3.13;;;;;;;13.40;54.83;102617.63;5067051;28;20060;-39
2023/05/27 02:16:20;;;;;;;8.32;3.10;;;;;;;13.36;55.04;102616.03;5060852;28;20094;-38
2023/05/27 02:18:48;;;;;;;11.52;2.80;;;;;;;13.21;55.26;102614.00;5047289;28;20039;-39
2023/05/27 02:21:14;;;;;;;13.65;3.88;;;;;;;13.24;55.07;102614.72;5060100;28;20040;-39
2023/05/27 02:23:40;;;;;;;9.85;3.13;;;;;;;13.21;55.16;102612.19;5054411;28;20033;-39
2023/05/27 02:26:05;;;;;;;10.30;3.55;;;;;;;13.18;55.20;102606.16;5062621;28;20024;-39
2023/05/27 02:28:31;;;;;;;12.25;3.40;;;;;;;13.14;55.29;102609.84;5066188;28;20516;-39
2023/05/27 02:30:58;;;;;;;9.60;3.22;;;;;;;13.14;55.25;102608.09;5067825;28;20589;-39
2023/05/27 02:33:23;;;;;;;16.80;3.20;;;;;;;13.18;54.98;102611.47;5062894;28;20040;-39
2023/05/27 02:35:49;;;;;;;11.40;3.05;;;;;;;13.25;55.00;102605.00;5055647;28;20048;-39
2023/05/27 02:38:14;;;;;;;7.00;2.10;;;;;;;13.22;55.02;102607.78;5063149;28;20797;-39
2023/05/27 02:40:39;;;;;;;9.25;2.33;;;;;;;13.24;54.84;102606.78;5058992;28;20028;-39
2023/05/27 02:43:05;;;;;;;29.50;12.57;;;;;;;13.28;54.78;102612.81;5067354;28;20028;-39
2023/05/27 02:45:31;;;;;;;16.33;7.40;;;;;;;13.26;54.83;102598.78;5049054;28;20184;-39
2023/05/27 02:47:59;;;;;;;11.70;4.30;;;;;;;13.28;54.42;102612.81;5060943;28;20494;-39
2023/05/27 02:50:24;;;;;;;11.25;2.83;;;;;;;13.28;54.60;102607.53;5047825;28;20028;-39
2023/05/27 02:52:50;;;;;;;9.20;3.03;;;;;;;13.24;54.72;102609.44;5068331;28;20059;-39
2023/05/27 02:55:15;;;;;;;8.57;4.63;;;;;;;13.15;54.85;102612.44;5042505;28;20039;-39
2023/05/27 02:57:40;;;;;;;8.07;2.88;;;;;;;13.11;54.99;102616.97;5062372;28;20043;-39
2023/05/27 03:00:08;;;;;;;7.95;2.90;;;;;;;13.08;55.04;102617.06;5048622;28;20047;-39
2023/05/27 03:02:34;;;;;;;6.00;2.08;;;;;;;13.03;55.13;102624.34;5054571;28;20024;-39
2023/05/27 03:05:01;;;;;;;9.82;3.45;;;;;;;13.06;55.08;102634.81;5062695;28;20036;-38
2023/05/27 03:07:29;;;;;;;12.40;3.47;;;;;;;13.06;55.15;102618.06;5047457;28;20070;-39
2023/05/27 03:09:55;;;;;;;11.95;3.20;;;;;;;13.07;55.12;102625.06;5061567;28;20036;-39
2023/05/27 03:12:21;;;;;;;15.70;4.50;;;;;;;13.06;55.22;102629.53;5060076;28;20028;-39
2023/05/27 03:14:46;;;;;;;13.80;3.90;;;;;;;13.04;55.34;102625.19;5060894;28;20085;-38
2023/05/27 03:17:12;;;;;;;11.38;3.50;;;;;;;12.92;55.51;102626.53;5066256;28;20398;-39
2023/05/27 03:19:37;;;;;;;15.50;3.30;;;;;;;12.86;55.76;102622.31;5058359;28;20036;-39
2023/05/27 03:22:03;;;;;;;11.55;3.70;;;;;;;12.86;55.88;102621.47;5047542;28;20040;-39
2023/05/27 03:24:29;;;;;;;17.38;3.60;;;;;;;12.85;55.88;102625.03;5047522;28;20032;-39
2023/05/27 03:26:54;;;;;;;12.98;3.10;;;;;;;12.91;55.75;102624.81;5061498;28;20043;-38
2023/05/27 03:29:20;;;;;;;10.35;4.53;;;;;;;12.92;55.87;102621.25;5058116;28;20375;-38
2023/05/27 03:31:45;;;;;;;15.98;5.03;;;;;;;12.91;55.90;102616.88;5057413;28;20041;-39
2023/05/27 03:34:11;;;;;;;9.48;4.10;;;;;;;12.97;55.79;102624.56;5062127;28;20448;-38
2023/05/27 03:36:37;;;;;;;11.75;3.38;;;;;;;12.99;55.74;102622.72;5067852;28;20036;-39
2023/05/27 03:39:04;;;;;;;13.20;3.40;;;;;;;13.01;55.75;102626.19;5062515;28;20580;-38
2023/05/27 03:41:32;;;;;;;9.30;3.30;;;;;;;13.03;55.57;102619.06;5049811;28;20100;-39
2023/05/27 03:43:57;;;;;;;12.30;3.85;;;;;;;12.99;55.44;102625.38;5064342;28;20578;-38
2023/05/27 03:46:23;;;;;;;9.07;3.63;;;;;;;12.94;55.52;102619.38;5029418;28;20040;-39
2023/05/27 03:48:48;;;;;;;10.32;3.78;;;;;;;12.87;55.75;102607.34;5051174;28;20021;-39
2023/05/27 03:51:14;;;;;;;15.02;3.35;;;;;;;12.88;56.11;102619.63;5061229;28;21112;-39
2023/05/27 03:53:40;;;;;;;7.75;3.38;;;;;;;12.78;56.40;102624.41;5053921;28;20020;-39
2023/05/27 03:56:07;;;;;;;11.25;4.25;;;;;;;12.75;56.35;102620.09;5062033;28;20070;-39
2023/05/27 03:58:33;;;;;;;9.43;3.17;;;;;;;12.84;56.07;102625.94;5064170;28;20028;-39
2023/05/27 04:00:58;;;;;;;14.10;3.88;;;;;;;12.90;56.11;102633.66;5049954;28;20058;-39
2023/05/27 04:03:25;;;;;;;16.45;3.47;;;;;;;12.92;56.20;102629.19;5063859;28;20038;-39
2023/05/27 04:05:54;;;;;;;10.35;4.55;;;;;;;12.90;56.30;102631.00;5045215;28;20151;-39
2023/05/27 04:08:22;;;;;;;7.15;3.72;;;;;;;12.89;56.14;102632.78;5046638;28;20024;-39
2023/05/27 04:10:47;;;;;;;16.70;3.58;;;;;;;12.91;56.17;102630.94;5060054;28;20036;-39
2023/05/27 04:13:13;;;;;;;11.45;3.03;;;;;;;12.95;56.37;102642.25;5064360;28;20039;-39
2023/05/27 04:15:38;;;;;;;9.60;3.15;;;;;;;12.95;56.46;102635.19;5047614;28;20035;-39
2023/05/27 04:18:04;;;;;;;23.25;7.43;;;;;;;12.95;56.53;102631.69;5037006;28;20070;-39
2023/05/27 04:20:40;;;;;;;19.33;7.03;;;;;;;12.93;56.81;102636.19;5065528;28;20056;-38
2023/05/27 04:23:07;;;;;;;9.50;3.22;;;;;;;12.88;56.64;102632.84;5047624;28;20036;-39
2023/05/27 04:25:34;;;;;;;16.13;3.90;;;;;;;12.79;56.95;102640.19;5064332;28;20036;-39
2023/05/27 04:28:00;;;;;;;11.38;3.55;;;;;;;12.84;56.98;102637.41;5065829;28;20074;-38
2023/05/27 04:30:25;;;;;;;15.35;3.58;;;;;;;12.94;56.76;102649.34;5041848;28;20040;-39
2023/05/27 04:32:52;;;;;;;14.20;3.88;;;;;;;13.03;56.82;102656.06;5063680;28;20402;-39
2023/05/27 04:35:21;;;;;;;14.73;3.15;;;;;;;13.00;57.07;102650.03;5033273;28;20042;-39
2023/05/27 04:37:47;;;;;;;8.50;3.30;;;;;;;13.02;56.80;102650.81;5065369;28;20081;-39
2023/05/27 04:40:13;;;;;;;10.07;2.92;;;;;;;13.04;56.81;102644.56;5061325;28;20028;-38
2023/05/27 04:42:38;;;;;;;7.03;3.28;;;;;;;13.06;56.82;102650.66;5066340;28;20031;-39
2023/05/27 04:45:05;;;;;;;12.30;3.65;;;;;;;13.11;56.90;102638.13;5050261;28;20525;-39
2023/05/27 04:47:36;;;;;;;18.25;6.05;;;;;;;13.23;56.59;102641.22;5066115;28;20040;-39
2023/05/27 04:50:03;;;;;;;8.75;3.13;;;;;;;13.30;56.41;102637.41;5066359;28;20073;-39
2023/05/27 04:52:29;;;;;;;9.63;3.08;;;;;;;13.29;56.46;102635.69;5061414;28;20050;-39
2023/05/27 04:54:55;;;;;;;10.02;3.17;;;;;;;13.28;56.67;102644.53;5069300;28;20502;-39
2023/05/27 04:57:26;;;;;;;10.27;3.53;;;;;;;13.36;56.51;102642.47;5064830;28;20143;-39
2023/05/27 05:00:18;;;;;;;11.40;2.90;;;;;;;13.36;56.58;102637.19;5068907;28;20051;-38
2023/05/27 05:02:39;;;;;;;12.38;3.20;;;;;;;13.48;56.41;102640.28;5060490;28;20036;-39
2023/05/27 05:05:11;;;;;;;12.40;3.88;;;;;;;13.53;56.26;102633.03;5063304;28;20482;-39
2023/05/27 05:07:37;;;;;;;;;;;;;;;13.56;57.12;102639.06;5051485;28;20032;-39
2023/05/27 05:10:05;;;;;;;11.68;4.00;;;;;;;13.64;56.16;102641.41;5064879;28;19920;-39
2023/05/27 05:12:30;;;;;;;8.10;3.53;;;;;;;13.72;56.06;102638.44;5064676;28;20031;-39
2023/05/27 05:14:56;;;;;;;11.15;3.08;;;;;;;13.81;55.77;102637.19;5058460;28;20051;-38
2023/05/27 05:17:24;;;;;;;13.57;3.90;;;;;;;13.84;56.14;102639.72;5054417;28;20186;-39
2023/05/27 05:19:52;;;;;;;11.80;3.20;;;;;;;13.88;56.06;102638.66;5058529;28;20047;-39
2023/05/27 05:22:22;;;;;;;12.25;3.17;;;;;;;13.91;56.08;102638.53;5064645;28;20040;-39
2023/05/27 05:24:48;;;;;;;12.40;3.05;;;;;;;13.94;56.16;102638.41;5056623;28;20391;-39
2023/05/27 05:27:14;;;;;;;15.45;3.47;;;;;;;13.97;56.12;102635.66;5060855;28;20107;-38
2023/05/27 05:29:39;;;;;;;9.23;3.30;;;;;;;14.02;56.07;102631.00;5054722;28;20020;-39
2023/05/27 05:32:05;;;;;;;11.32;2.90;;;;;;;14.10;56.17;102638.63;5059511;28;20112;-39
2023/05/27 05:34:31;;;;;;;14.57;3.78;;;;;;;14.17;56.13;102633.91;5057039;28;20085;-39
2023/05/27 05:36:56;;;;;;;13.68;3.28;;;;;;;14.25;55.93;102636.22;5041720;28;20028;-39
2023/05/27 05:39:22;;;;;;;11.85;3.67;;;;;;;14.33;55.84;102642.06;5058712;28;20046;-39
2023/05/27 05:41:48;;;;;;;10.10;3.53;;;;;;;14.37;55.69;102645.44;5066346;28;20444;-39
2023/05/27 05:44:15;;;;;;;14.60;4.57;;;;;;;14.42;55.71;102654.06;5064743;28;20047;-39
2023/05/27 05:46:43;;;;;;;14.25;4.10;;;;;;;14.51;55.62;102650.16;5065102;28;20020;-39
2023/05/27 05:49:09;;;;;;;5.93;3.00;;;;;;;14.57;55.44;102649.84;5061040;28;20046;-39
2023/05/27 05:51:35;;;;;;;10.38;3.72;;;;;;;14.62;55.27;102640.78;5062009;28;20478;-39
2023/05/27 05:54:00;;;;;;;10.30;3.38;;;;;;;14.67;55.08;102642.38;5045057;28;20033;-39
2023/05/27 05:56:27;;;;;;;14.82;3.00;;;;;;;14.68;54.99;102646.78;5062183;28;20043;-39
2023/05/27 05:58:52;;;;;;;5.90;1.88;;;;;;;14.73;54.75;102642.13;5045798;28;20101;-39
2023/05/27 06:01:20;;;;;;;17.48;6.20;;;;;;;14.77;54.70;102649.88;5061441;28;21415;-39
2023/05/27 06:03:46;;;;;;;8.50;3.63;;;;;;;14.81;54.39;102655.88;5062362;28;20126;-38
2023/05/27 06:06:12;;;;;;;5.93;1.80;;;;;;;14.85;54.15;102646.88;5062082;28;20067;-39
2023/05/27 06:08:37;;;;;;;9.77;2.25;;;;;;;14.89;54.42;102659.06;5046627;28;20131;-39
2023/05/27 06:11:03;;;;;;;10.90;2.28;;;;;;;14.93;53.99;102652.66;5058284;28;20104;-39
2023/05/27 06:13:28;;;;;;;7.55;2.50;;;;;;;15.00;53.84;102657.69;5057772;28;20115;-39
2023/05/27 06:15:55;;;;;;;8.57;2.00;;;;;;;15.05;53.72;102658.38;5058133;28;20042;-39
2023/05/27 06:18:24;;;;;;;6.22;1.77;;;;;;;15.07;53.61;102661.78;5055589;28;22049;-39
2023/05/27 06:20:49;;;;;;;11.35;2.00;;;;;;;15.08;53.88;102655.53;5052163;28;20040;-39
2023/05/27 06:23:14;;;;;;;5.53;2.17;;;;;;;15.11;53.86;102660.72;5041986;28;20397;-39
2023/05/27 06:25:40;;;;;;;8.35;2.35;;;;;;;15.13;53.91;102660.63;5056180;28;20032;-39
2023/05/27 06:28:08;;;;;;;4.30;2.08;;;;;;;15.18;53.90;102655.97;5069191;28;20028;-39
2023/05/27 06:30:36;;;;;;;7.43;2.10;;;;;;;15.23;53.84;102662.78;5065927;28;20097;-40
2023/05/27 06:33:02;;;;;;;6.85;1.77;;;;;;;15.23;53.80;102657.47;5066183;28;20534;-39
2023/05/27 06:35:27;;;;;;;7.80;1.77;;;;;;;15.27;54.01;102654.69;5059536;28;20051;-39
2023/05/27 06:37:52;;;;;;;4.88;1.88;;;;;;;15.34;53.89;102656.97;5049591;28;20032;-40
2023/05/27 06:40:18;;;;;;;10.68;1.90;;;;;;;15.38;53.67;102657.69;5063043;28;20036;-39
2023/05/27 06:42:44;;;;;;;7.15;1.80;;;;;;;15.43;53.54;102662.78;5047311;28;20053;-40
2023/05/27 06:45:10;;;;;;;9.52;2.35;;;;;;;15.47;53.80;102665.22;5064523;28;20020;-39
2023/05/27 06:47:36;;;;;;;9.82;3.70;;;;;;;15.51;53.83;102668.59;5051140;28;20032;-39
2023/05/27 06:50:01;;;;;;;7.55;1.77;;;;;;;15.53;53.80;102667.56;5063836;28;20115;-39
2023/05/27 06:52:27;;;;;;;10.40;1.70;;;;;;;15.58;53.79;102677.94;5062445;28;20486;-39
2023/05/27 06:54:52;;;;;;;6.80;1.38;;;;;;;15.60;53.61;102680.53;5065996;28;20036;-39
2023/05/27 06:57:17;;;;;;;13.10;2.85;;;;;;;15.63;53.66;102672.44;5065974;28;20040;-39
2023/05/27 06:59:43;;;;;;;7.70;1.98;;;;;;;15.66;53.70;102675.78;5061941;28;20032;-39
2023/05/27 07:02:08;;;;;;;7.75;3.25;;;;;;;15.70;53.99;102674.72;5068141;28;20036;-39
2023/05/27 07:04:34;;;;;;;5.40;1.95;;;;;;;15.73;53.83;102671.03;5039899;28;20466;-39
2023/05/27 07:06:59;;;;;;;12.85;4.00;;;;;;;15.78;53.91;102670.81;5065648;28;20473;-39
2023/05/27 07:09:24;;;;;;;8.75;3.60;;;;;;;15.85;53.94;102675.78;5038039;28;20050;-40
2023/05/27 07:11:50;;;;;;;7.88;2.90;;;;;;;15.93;53.98;102671.91;5039146;28;20097;-40
2023/05/27 07:14:15;;;;;;;6.32;1.70;;;;;;;15.98;53.90;102672.50;5059334;28;20141;-40
2023/05/27 07:16:41;;;;;;;9.02;2.42;;;;;;;16.02;53.74;102674.09;5057805;28;20051;-39
2023/05/27 07:19:06;;;;;;;9.55;2.17;;;;;;;16.08;53.53;102672.91;5066503;28;20384;-38
2023/05/27 07:21:32;;;;;;;6.78;2.20;;;;;;;16.12;53.45;102664.72;5069006;28;20063;-39
2023/05/27 07:23:58;;;;;;;7.15;1.92;;;;;;;16.12;53.46;102671.84;5061289;28;20024;-38
2023/05/27 07:26:25;;;;;;;6.60;2.28;;;;;;;16.15;53.17;102659.25;5060756;28;20089;-38
2023/05/27 07:28:51;;;;;;;6.55;2.20;;;;;;;16.19;53.02;102661.75;5063726;28;20039;-38
2023/05/27 07:31:17;;;;;;;11.00;4.55;;;;;;;16.24;52.56;102657.06;5048838;28;20077;-39
2023/05/27 07:33:43;;;;;;;10.60;2.67;;;;;;;16.28;52.50;102661.28;5060131;28;20039;-39
2023/05/27 07:36:08;;;;;;;7.38;2.30;;;;;;;16.31;52.54;102666.44;5059498;28;20020;-38
2023/05/27 07:38:33;;;;;;;6.03;1.75;;;;;;;16.34;52.14;102658.31;5061972;28;20043;-38
2023/05/27 07:40:59;;;;;;;6.70;1.55;;;;;;;16.34;51.81;102650.34;5036014;28;20410;-38
2023/05/27 07:43:24;;;;;;;7.45;1.50;;;;;;;16.35;51.79;102652.06;5062375;28;20085;-38
2023/05/27 07:45:50;;;;;;;5.50;1.98;;;;;;;16.38;51.68;102653.69;5049443;28;20032;-38
2023/05/27 07:48:15;;;;;;;5.93;1.77;;;;;;;16.39;51.55;102652.75;5063130;28;20027;-38
2023/05/27 07:50:41;;;;;;;4.80;1.40;;;;;;;16.40;51.52;102644.72;5047841;28;20036;-38
2023/05/27 07:53:06;;;;;;;3.42;1.80;;;;;;;16.43;51.68;102652.50;5047386;28;20051;-38
2023/05/27 07:55:31;;;;;;;9.85;1.83;;;;;;;16.49;51.56;102639.84;5060651;28;20047;-39
2023/05/27 07:57:57;;;;;;;5.35;1.38;;;;;;;16.56;51.57;102643.91;5069111;28;20035;-38
2023/05/27 08:00:22;;;;;;;5.32;1.88;;;;;;;16.60;51.55;102634.81;5060902;28;20044;-39
2023/05/27 08:02:48;;;;;;;4.90;1.60;;;;;;;16.64;51.49;102636.38;5063395;28;20044;-39
2023/05/27 08:05:13;;;;;;;2.10;1.08;;;;;;;16.67;51.05;102638.88;5047553;28;20028;-39
2023/05/27 08:07:39;;;;;;;4.63;1.30;;;;;;;16.71;50.71;102629.78;5038968;28;20039;-39
2023/05/27 08:10:05;;;;;;;5.32;1.63;;;;;;;16.74;50.36;102631.44;5050395;28;20991;-39
2023/05/27 08:12:31;;;;;;;7.60;1.80;;;;;;;16.76;50.13;102627.72;5061195;28;20101;-40
2023/05/27 08:14:56;;;;;;;11.07;3.65;;;;;;;16.76;49.99;102629.53;5059804;28;20035;-40
2023/05/27 08:17:21;;;;;;;6.68;1.60;;;;;;;16.74;49.62;102626.09;5074045;28;20047;-40
2023/05/27 08:19:47;;;;;;;6.82;1.20;;;;;;;16.74;49.39;102629.63;5056579;28;20040;-38
2023/05/27 08:22:12;;;;;;;5.47;1.35;;;;;;;16.74;49.13;102626.97;5043854;28;20131;-39
2023/05/27 08:24:38;;;;;;;3.63;0.98;;;;;;;16.77;49.03;102629.44;5051745;28;20068;-38
2023/05/27 08:27:05;;;;;;;7.93;1.45;;;;;;;16.80;48.96;102627.56;5052116;28;20045;-38
2023/05/27 08:29:32;;;;;;;8.90;1.35;;;;;;;16.81;49.00;102621.31;5046221;28;20024;-40
2023/05/27 08:31:58;;;;;;;5.00;1.23;;;;;;;16.84;49.01;102618.50;5054169;28;20032;-40
2023/05/27 08:34:25;;;;;;;3.45;1.02;;;;;;;16.90;48.74;102620.81;5059728;28;20039;-39
2023/05/27 08:36:51;;;;;;;4.38;1.10;;;;;;;16.95;48.50;102612.59;5037841;28;20039;-39
2023/05/27 08:39:16;;;;;;;4.65;1.45;;;;;;;16.97;48.43;102614.25;5048725;28;20028;-39
2023/05/27 08:41:42;;;;;;;3.63;1.23;;;;;;;16.99;48.26;102617.69;5028448;28;20075;-39
2023/05/27 08:44:08;;;;;;;4.60;1.80;;;;;;;17.02;48.00;102606.84;5051309;28;20384;-39
2023/05/27 08:46:35;;;;;;;6.22;1.17;;;;;;;17.05;47.63;102609.34;5062234;28;20029;-40
2023/05/27 08:49:01;;;;;;;6.60;1.60;;;;;;;17.05;47.75;102608.50;5065345;28;20066;-39
2023/05/27 08:51:27;;;;;;;6.28;1.40;;;;;;;17.06;47.53;102604.91;5058442;28;20449;-39
2023/05/27 08:53:53;;;;;;;5.53;1.23;;;;;;;17.06;47.31;102600.44;5029308;28;20039;-40
2023/05/27 08:56:22;;;;;;;3.65;1.35;;;;;;;17.08;47.21;102610.13;5044070;28;20036;-39
2023/05/27 08:58:48;;;;;;;4.15;1.10;;;;;;;17.09;47.15;102601.22;5051666;28;20702;-39
2023/05/27 09:01:21;;;;;;;3.00;1.00;;;;;;;17.13;46.88;102595.63;5065547;28;20479;-38
2023/05/27 09:03:47;;;;;;;3.65;1.23;;;;;;;17.14;47.31;102604.47;5062386;28;20032;-39
2023/05/27 09:06:13;;;;;;;6.28;1.30;;;;;;;17.14;47.40;102601.81;5049849;28;20029;-38
2023/05/27 09:08:39;;;;;;;7.60;1.38;;;;;;;17.17;47.56;102596.31;5044043;28;20032;-38
2023/05/27 09:11:07;;;;;;;8.68;1.27;;;;;;;17.21;47.59;102601.38;5030109;28;20409;-38
2023/05/27 09:13:33;;;;;;;8.32;2.03;;;;;;;17.29;47.15;102595.63;5041739;28;20507;-39
2023/05/27 09:16:07;;;;;;;11.55;5.85;;;;;;;17.39;46.70;102598.63;5050771;28;20032;-38
2023/05/27 09:18:35;;;;;;;5.63;1.40;;;;;;;17.45;46.15;102594.75;5062478;28;20101;-39
2023/05/27 09:21:01;;;;;;;7.53;1.98;;;;;;;17.46;46.17;102593.81;5062731;28;20032;-39
2023/05/27 09:23:27;;;;;;;2.72;1.38;;;;;;;17.44;46.26;102598.34;5044707;28;20032;-38
2023/05/27 09:25:53;;;;;;;7.40;1.30;;;;;;;17.49;45.82;102590.94;5044883;28;20028;-39
2023/05/27 09:28:26;;;;;;;4.00;0.82;;;;;;;17.55;45.03;102598.59;5052544;28;20039;-39
2023/05/27 09:31:02;;;;;;;2.67;1.25;;;;;;;17.58;44.40;102593.09;5064256;28;20032;-39
2023/05/27 09:33:32;;;;;;;2.10;0.88;;;;;;;17.62;44.60;102596.44;5063310;28;20032;-39
2023/05/27 09:35:59;;;;;;;2.40;0.82;;;;;;;17.66;44.48;102601.47;5052642;28;20173;-39
2023/05/27 09:38:28;;;;;;;4.35;1.35;;;;;;;17.70;44.39;102596.81;5042560;28;20028;-39
2023/05/27 09:40:53;;;;;;;8.10;1.25;;;;;;;17.73;44.46;102598.47;5039432;28;20517;-39
2023/05/27 09:43:19;;;;;;;5.15;0.90;;;;;;;17.71;44.55;102589.72;5046014;28;20044;-39
2023/05/27 09:45:45;;;;;;;3.40;0.70;;;;;;;17.74;44.30;102594.84;5057790;28;20485;-38
2023/05/27 09:48:13;;;;;;;7.60;1.73;;;;;;;17.78;43.86;102586.59;5039413;28;20028;-39
2023/05/27 09:50:40;;;;;;;3.53;0.75;;;;;;;17.83;43.73;102588.97;5039931;28;20028;-39
2023/05/27 09:53:06;;;;;;;9.45;1.38;;;;;;;17.90;43.76;102595.66;5071269;28;20081;-39
2023/05/27 09:55:33;;;;;;;8.27;2.72;;;;;;;17.93;43.83;102583.97;5066386;28;20024;-40
2023/05/27 09:57:58;;;;;;;4.35;0.80;;;;;;;18.02;43.59;102585.25;5052941;28;20064;-40
2023/05/27 10:00:26;;;;;;;2.88;1.13;;;;;;;18.07;43.29;102580.53;5030220;28;20148;-39
2023/05/27 10:02:53;;;;;;;4.50;0.90;;;;;;;18.09;43.25;102575.94;5048173;28;20048;-39
2023/05/27 10:05:22;;;;;;;4.97;0.90;;;;;;;18.11;43.01;102580.22;5065476;28;20047;-39
2023/05/27 10:07:48;;;;;;;3.35;1.08;;;;;;;18.16;42.78;102571.94;5067379;28;20023;-39
2023/05/27 10:10:18;;;;;;;1.10;0.30;;;;;;;18.18;42.45;102578.03;5070285;28;20027;-40
2023/05/27 10:12:46;;;;;;;5.88;0.90;;;;;;;18.22;42.26;102574.25;5055160;28;20036;-40
2023/05/27 10:15:27;;;;;;;6.88;1.25;;;;;;;18.25;41.35;102571.38;5063416;28;20498;-40
2023/05/27 10:17:55;;;;;;;3.90;0.70;;;;;;;18.30;42.00;102564.91;5057645;28;20512;-40
2023/05/27 10:20:31;;;;;;;8.43;3.20;;;;;;;18.36;40.48;102570.72;5043094;28;20056;-39
2023/05/27 10:23:21;;;;;;;1.65;0.52;;;;;;;18.40;40.21;102571.38;5060090;28;20113;-39
2023/05/27 10:25:51;;;;;;;4.65;0.90;;;;;;;18.41;40.82;102567.75;5034368;28;20578;-40
2023/05/27 10:28:44;;;;;;;5.55;1.15;;;;;;;18.43;40.14;102564.06;5061056;28;25676;-40
2023/05/27 10:31:11;;;;;;;4.00;1.10;;;;;;;18.48;41.00;102563.78;5049089;28;20074;-40
2023/05/27 10:33:38;;;;;;;2.45;0.82;;;;;;;18.51;40.71;102562.72;5069909;28;20060;-40
2023/05/27 10:36:09;;;;;;;4.78;0.80;;;;;;;18.55;40.37;102564.25;5073193;28;20032;-40
2023/05/27 10:38:35;;;;;;;4.00;0.90;;;;;;;18.56;40.28;102561.47;5049278;28;20542;-40
2023/05/27 10:41:03;;;;;;;3.63;0.70;;;;;;;18.60;40.20;102556.81;5072960;28;20035;-40
2023/05/27 10:43:29;;;;;;;3.45;0.93;;;;;;;18.62;40.20;102556.72;5061845;28;20036;-40
2023/05/27 10:46:13;;;;;;;4.65;1.13;;;;;;;18.68;39.69;102553.69;5067508;28;20062;-40
2023/05/27 10:48:39;;;;;;;3.55;1.48;;;;;;;18.70;40.50;102543.75;5049085;28;20805;-40
2023/05/27 10:51:06;;;;;;;5.07;1.00;;;;;;;18.78;40.38;102538.78;5068804;28;20036;-40
2023/05/27 10:53:34;;;;;;;5.80;1.20;;;;;;;18.85;40.55;102540.09;5063819;28;20051;-40
2023/05/27 10:56:00;;;;;;;2.88;0.95;;;;;;;18.91;40.45;102541.50;5034913;28;20134;-40
2023/05/27 10:58:26;;;;;;;8.80;1.67;;;;;;;18.95;40.65;102539.53;5067875;28;20551;-40
2023/05/27 11:00:52;;;;;;;3.45;1.33;;;;;;;19.00;40.65;102543.63;5054563;28;20051;-40
2023/05/27 11:03:27;;;;;;;4.63;1.10;;;;;;;19.06;39.89;102531.69;5070176;28;20064;-41
2023/05/27 11:06:06;;;;;;;37.30;16.85;;;;;;;19.12;40.00;102536.63;5068598;28;20035;-40
2023/05/27 11:08:33;;;;;;;3.10;1.35;;;;;;;19.16;39.97;102534.63;5063963;28;20028;-40
2023/05/27 11:10:59;;;;;;;2.33;0.90;;;;;;;19.18;39.71;102528.22;5068059;28;20390;-40
2023/05/27 11:13:45;;;;;;;5.45;1.02;;;;;;;19.24;39.55;102528.75;5049821;28;20523;-40
2023/05/27 11:16:12;;;;;;;9.02;2.35;;;;;;;19.28;40.13;102527.63;5046600;28;20032;-40
2023/05/27 11:18:41;;;;;;;5.63;2.20;;;;;;;19.34;39.81;102522.72;5062209;28;21107;-40
2023/05/27 11:21:08;;;;;;;2.33;1.05;;;;;;;19.45;39.80;102521.13;5047832;28;20131;-40